createdAt,value
2023-01-05T00:00:34.440Z,74.79
2023-01-05T00:01:34.425Z,74.22
2023-01-05T00:02:34.448Z,74.41
2023-01-05T00:03:34.432Z,74.51
2023-01-05T00:04:34.477Z,74.41
2023-01-05T00:05:34.453Z,73.94
2023-01-05T00:06:34.476Z,73.94
2023-01-05T00:07:34.459Z,73.18
2023-01-05T00:08:37.426Z,73.18
2023-01-05T00:09:34.477Z,72.71
2023-01-05T00:10:34.485Z,72.52
2023-01-05T00:11:34.524Z,72.33
2023-01-05T00:12:34.514Z,72.42
2023-01-05T00:13:34.521Z,73.03
2023-01-05T00:14:34.513Z,73.50
2023-01-05T00:15:34.522Z,73.41
2023-01-05T00:16:34.591Z,72.99
2023-01-05T00:17:34.535Z,72.89
2023-01-05T00:18:34.543Z,73.12
2023-01-05T00:19:34.542Z,72.93
2023-01-05T00:20:34.559Z,73.12
2023-01-05T00:21:34.563Z,73.12
2023-01-05T00:22:34.719Z,72.74
2023-01-05T00:23:34.673Z,73.41
2023-01-05T00:24:34.582Z,73.69
2023-01-05T00:25:34.589Z,73.97
2023-01-05T00:26:34.596Z,74.64
2023-01-05T00:27:34.605Z,73.69
2023-01-05T00:28:34.617Z,73.60
2023-01-05T00:29:34.636Z,74.16
2023-01-05T00:30:34.632Z,73.84
2023-01-05T00:31:34.656Z,73.88
2023-01-05T00:32:34.658Z,74.03
2023-01-05T00:33:34.650Z,74.26
2023-01-05T00:34:34.656Z,74.98
2023-01-05T00:35:34.663Z,74.98
2023-01-05T00:36:34.674Z,74.69
2023-01-05T00:37:34.701Z,74.79
2023-01-05T00:38:34.689Z,75.07
2023-01-05T00:39:34.689Z,74.73
2023-01-05T00:40:34.722Z,74.07
2023-01-05T00:41:34.706Z,73.75
2023-01-05T00:42:34.716Z,74.03
2023-01-05T00:43:34.728Z,73.94
2023-01-05T00:44:34.733Z,73.12
2023-01-05T00:45:34.834Z,71.57
2023-01-05T00:46:34.742Z,71.28
2023-01-05T00:47:34.752Z,71.76
2023-01-05T00:48:34.761Z,72.27
2023-01-05T00:49:34.768Z,72.17
2023-01-05T00:50:34.790Z,72.36
2023-01-05T00:51:34.777Z,73.03
2023-01-05T00:52:34.785Z,74.16
2023-01-05T00:53:34.794Z,75.02
2023-01-05T00:54:34.832Z,75.49
2023-01-05T00:55:34.805Z,75.40
2023-01-05T00:56:34.823Z,75.21
2023-01-05T00:57:34.831Z,75.31
2023-01-05T00:58:34.831Z,75.02
2023-01-05T00:59:34.846Z,75.31
2023-01-05T01:00:34.847Z,74.73
2023-01-05T01:01:35.002Z,75.11
2023-01-05T01:02:34.920Z,74.92
2023-01-05T01:03:34.912Z,74.73
2023-01-05T01:04:34.874Z,75.31
2023-01-05T01:05:34.882Z,75.21
2023-01-05T01:06:34.891Z,74.64
2023-01-05T01:07:34.997Z,74.83
2023-01-05T01:08:34.904Z,74.64
2023-01-05T01:09:34.917Z,75.11
2023-01-05T01:10:34.947Z,75.49
2023-01-05T01:11:34.993Z,75.49
2023-01-05T01:12:34.949Z,76.06
2023-01-05T01:13:34.941Z,76.44
2023-01-05T01:14:34.948Z,76.06
2023-01-05T01:15:34.951Z,76.73
2023-01-05T01:16:35.057Z,77.29
2023-01-05T01:17:34.988Z,76.63
2023-01-05T01:18:34.977Z,75.96
2023-01-05T01:19:34.983Z,75.02
2023-01-05T01:20:35.002Z,74.64
2023-01-05T01:21:35.002Z,75.78
2023-01-05T01:22:35.005Z,76.25
2023-01-05T01:23:35.019Z,76.63
2023-01-05T01:24:35.023Z,77.58
2023-01-05T01:25:35.024Z,77.48
2023-01-05T01:26:35.036Z,77.58
2023-01-05T01:27:35.052Z,77.39
2023-01-05T01:28:35.055Z,77.20
2023-01-05T01:29:35.055Z,77.01
2023-01-05T01:30:35.127Z,77.20
2023-01-05T01:31:35.073Z,77.67
2023-01-05T01:32:35.083Z,77.96
2023-01-05T01:33:35.108Z,78.34
2023-01-05T01:34:35.097Z,78.15
2023-01-05T01:35:35.104Z,78.62
2023-01-05T01:36:35.113Z,78.53
2023-01-05T01:37:35.114Z,78.05
2023-01-05T01:38:35.127Z,78.24
2023-01-05T01:39:35.147Z,78.81
2023-01-05T01:40:35.162Z,78.34
2023-01-05T01:41:35.146Z,78.72
2023-01-05T01:42:35.158Z,78.34
2023-01-05T01:43:35.162Z,78.62
2023-01-05T01:44:35.174Z,78.05
2023-01-05T01:45:35.227Z,77.96
2023-01-05T01:46:35.186Z,77.39
2023-01-05T01:47:35.195Z,78.34
2023-01-05T01:48:35.204Z,78.43
2023-01-05T01:49:35.226Z,78.72
2023-01-05T01:50:35.228Z,78.15
2023-01-05T01:51:35.224Z,78.34
2023-01-05T01:52:35.233Z,78.91
2023-01-05T01:53:35.295Z,79.00
2023-01-05T01:54:35.264Z,79.47
2023-01-05T01:55:35.251Z,79.47
2023-01-05T01:56:35.271Z,80.14
2023-01-05T01:57:35.275Z,80.14
2023-01-05T01:58:35.278Z,80.04
2023-01-05T01:59:35.282Z,79.47
2023-01-05T02:00:35.299Z,79.38
2023-01-05T02:01:35.450Z,78.34
2023-01-05T02:02:35.436Z,78.34
2023-01-05T02:03:35.317Z,79.10
2023-01-05T02:04:35.391Z,79.00
2023-01-05T02:05:35.361Z,79.66
2023-01-05T02:06:35.337Z,79.95
2023-01-05T02:07:35.342Z,79.66
2023-01-05T02:08:35.373Z,79.76
2023-01-05T02:09:35.370Z,77.20
2023-01-05T02:10:35.390Z,71.70
2023-01-05T02:11:35.376Z,70.47
2023-01-05T02:12:35.408Z,68.29
2023-01-05T02:13:35.391Z,68.10
2023-01-05T02:14:35.415Z,68.29
2023-01-05T02:15:35.411Z,68.85
2023-01-05T02:16:35.493Z,69.52
2023-01-05T02:17:35.419Z,69.90
2023-01-05T02:18:35.447Z,68.66
2023-01-05T02:19:35.436Z,67.68
2023-01-05T02:20:35.452Z,67.21
2023-01-05T02:21:35.475Z,67.11
2023-01-05T02:22:35.463Z,68.44
2023-01-05T02:23:35.487Z,68.63
2023-01-05T02:24:35.481Z,69.57
2023-01-05T02:25:35.480Z,68.73
2023-01-05T02:26:35.491Z,68.06
2023-01-05T02:27:35.535Z,67.40
2023-01-05T02:28:35.575Z,67.21
2023-01-05T02:29:35.564Z,67.40
2023-01-05T02:30:35.624Z,66.35
2023-01-05T02:31:35.569Z,65.97
2023-01-05T02:32:35.578Z,65.97
2023-01-05T02:33:35.560Z,66.16
2023-01-05T02:34:35.565Z,67.58
2023-01-05T02:35:35.592Z,68.35
2023-01-05T02:36:35.569Z,68.66
2023-01-05T02:37:35.596Z,69.38
2023-01-05T02:38:35.602Z,69.67
2023-01-05T02:39:35.588Z,70.81
2023-01-05T02:40:35.602Z,71.09
2023-01-05T02:41:35.608Z,70.72
2023-01-05T02:42:35.714Z,71.09
2023-01-05T02:43:35.622Z,71.19
2023-01-05T02:44:35.627Z,71.47
2023-01-05T02:45:35.636Z,71.57
2023-01-05T02:46:35.714Z,71.76
2023-01-05T02:47:35.648Z,73.56
2023-01-05T02:48:35.658Z,76.82
2023-01-05T02:49:35.684Z,79.00
2023-01-05T02:50:35.681Z,80.80
2023-01-05T02:51:35.678Z,81.27
2023-01-05T02:52:35.694Z,81.56
2023-01-05T02:53:35.715Z,77.58
2023-01-05T02:54:35.712Z,73.97
2023-01-05T02:55:35.709Z,74.83
2023-01-05T02:56:35.756Z,78.81
2023-01-05T02:57:35.724Z,79.47
2023-01-05T02:58:35.745Z,79.66
2023-01-05T02:59:35.762Z,79.00
2023-01-05T03:00:35.768Z,78.34
2023-01-05T03:01:35.930Z,79.57
2023-01-05T03:02:36.057Z,80.71
2023-01-05T03:03:35.838Z,79.19
2023-01-05T03:04:35.782Z,75.31
2023-01-05T03:05:35.783Z,73.22
2023-01-05T03:06:35.813Z,71.80
2023-01-05T03:07:35.802Z,73.31
2023-01-05T03:08:35.811Z,75.11
2023-01-05T03:09:35.833Z,77.29
2023-01-05T03:10:35.826Z,79.10
2023-01-05T03:11:35.830Z,79.47
2023-01-05T03:12:35.866Z,80.04
2023-01-05T03:13:35.849Z,80.52
2023-01-05T03:14:35.864Z,80.33
2023-01-05T03:15:35.967Z,81.18
2023-01-05T03:16:35.929Z,80.62
2023-01-05T03:17:35.888Z,82.13
2023-01-05T03:18:35.905Z,83.08
2023-01-05T03:19:35.933Z,83.74
2023-01-05T03:20:35.913Z,84.31
2023-01-05T03:21:35.913Z,84.41
2023-01-05T03:22:35.926Z,83.74
2023-01-05T03:23:35.921Z,83.65
2023-01-05T03:24:35.930Z,83.94
2023-01-05T03:25:35.953Z,83.36
2023-01-05T03:26:35.955Z,82.60
2023-01-05T03:27:35.951Z,82.42
2023-01-05T03:28:35.965Z,82.51
2023-01-05T03:29:35.962Z,82.60
2023-01-05T03:30:35.994Z,82.60
2023-01-05T03:31:35.978Z,83.55
2023-01-05T03:32:35.990Z,83.08
2023-01-05T03:33:35.995Z,81.94
2023-01-05T03:34:36.017Z,82.32
2023-01-05T03:35:36.014Z,82.60
2023-01-05T03:36:36.018Z,82.89
2023-01-05T03:37:36.029Z,83.17
2023-01-05T03:38:36.042Z,83.55
2023-01-05T03:39:36.040Z,82.89
2023-01-05T03:40:36.061Z,82.70
2023-01-05T03:41:36.079Z,82.60
2023-01-05T03:42:36.071Z,82.79
2023-01-05T03:43:36.076Z,82.51
2023-01-05T03:44:36.103Z,82.89
2023-01-05T03:45:36.087Z,83.08
2023-01-05T03:46:36.170Z,83.36
2023-01-05T03:47:36.111Z,83.17
2023-01-05T03:48:36.115Z,82.13
2023-01-05T03:49:36.126Z,82.37
2023-01-05T03:50:36.130Z,82.18
2023-01-05T03:51:41.491Z,82.42
2023-01-05T03:52:36.139Z,82.04
2023-01-05T03:53:36.152Z,82.42
2023-01-05T03:54:36.154Z,82.70
2023-01-05T03:55:36.163Z,82.94
2023-01-05T03:56:36.192Z,83.04
2023-01-05T03:57:36.194Z,83.23
2023-01-05T03:58:36.284Z,83.80
2023-01-05T03:59:36.205Z,83.98
2023-01-05T04:00:36.202Z,84.08
2023-01-05T04:01:36.306Z,84.84
2023-01-05T04:02:36.465Z,85.78
2023-01-05T04:03:36.258Z,86.55
2023-01-05T04:04:36.224Z,86.16
2023-01-05T04:05:36.244Z,86.83
2023-01-05T04:06:36.252Z,86.74
2023-01-05T04:07:36.251Z,86.93
2023-01-05T04:08:36.255Z,88.63
2023-01-05T04:09:36.264Z,89.29
2023-01-05T04:10:36.294Z,89.67
2023-01-05T04:11:36.280Z,89.77
2023-01-05T04:12:36.284Z,90.81
2023-01-05T04:13:36.320Z,91.76
2023-01-05T04:14:36.298Z,92.52
2023-01-05T04:15:36.343Z,92.42
2023-01-05T04:16:36.373Z,92.80
2023-01-05T04:17:36.363Z,92.52
2023-01-05T04:18:36.334Z,92.80
2023-01-05T04:19:36.351Z,93.75
2023-01-05T04:20:36.347Z,93.65
2023-01-05T04:21:36.351Z,93.84
2023-01-05T04:22:36.390Z,95.07
2023-01-05T04:23:36.371Z,95.93
2023-01-05T04:24:36.372Z,96.59
2023-01-05T04:25:36.433Z,97.26
2023-01-05T04:26:36.390Z,97.35
2023-01-05T04:27:36.395Z,97.83
2023-01-05T04:28:36.404Z,97.83
2023-01-05T04:29:36.428Z,98.58
2023-01-05T04:30:36.417Z,98.58
2023-01-05T04:31:36.445Z,98.21
2023-01-05T04:32:36.529Z,98.11
2023-01-05T04:33:36.446Z,97.07
2023-01-05T04:34:36.445Z,96.97
2023-01-05T04:35:36.453Z,97.35
2023-01-05T04:36:36.482Z,97.83
2023-01-05T04:37:36.473Z,97.35
2023-01-05T04:38:36.475Z,97.16
2023-01-05T04:39:36.489Z,97.35
2023-01-05T04:40:36.485Z,97.35
2023-01-05T04:41:36.496Z,97.45
2023-01-05T04:42:36.508Z,96.97
2023-01-05T04:43:36.512Z,96.03
2023-01-05T04:44:36.523Z,96.78
2023-01-05T04:45:36.544Z,96.31
2023-01-05T04:46:36.556Z,96.69
2023-01-05T04:47:36.543Z,96.59
2023-01-05T04:48:36.542Z,96.59
2023-01-05T04:49:36.563Z,96.03
2023-01-05T04:50:36.560Z,96.03
2023-01-05T04:51:36.566Z,96.22
2023-01-05T04:52:36.576Z,96.31
2023-01-05T04:53:36.581Z,96.78
2023-01-05T04:54:36.589Z,95.74
2023-01-05T04:55:36.608Z,95.07
2023-01-05T04:56:36.608Z,94.51
2023-01-05T04:57:36.627Z,94.23
2023-01-05T04:58:36.622Z,94.51
2023-01-05T04:59:36.624Z,95.07
2023-01-05T05:00:36.628Z,95.45
2023-01-05T05:01:36.888Z,96.03
2023-01-05T05:02:36.813Z,95.74
2023-01-05T05:03:36.697Z,96.41
2023-01-05T05:04:36.664Z,96.41
2023-01-05T05:05:36.677Z,96.69
2023-01-05T05:06:36.672Z,96.97
2023-01-05T05:07:36.685Z,96.22
2023-01-05T05:08:36.690Z,96.59
2023-01-05T05:09:36.721Z,95.55
2023-01-05T05:10:36.702Z,95.36
2023-01-05T05:11:36.741Z,95.84
2023-01-05T05:12:36.759Z,95.26
2023-01-05T05:13:36.732Z,95.74
2023-01-05T05:14:36.734Z,95.93
2023-01-05T05:15:36.845Z,95.93
2023-01-05T05:16:36.744Z,95.93
2023-01-05T05:17:36.779Z,96.59
2023-01-05T05:18:36.762Z,96.59
2023-01-05T05:19:36.771Z,96.59
2023-01-05T05:20:36.771Z,97.35
2023-01-05T05:21:36.781Z,97.45
2023-01-05T05:22:36.785Z,97.64
2023-01-05T05:23:36.797Z,97.64
2023-01-05T05:24:36.806Z,97.83
2023-01-05T05:25:36.811Z,97.07
2023-01-05T05:26:36.814Z,97.54
2023-01-05T05:27:36.852Z,97.45
2023-01-05T05:28:36.844Z,97.16
2023-01-05T05:29:36.852Z,97.35
2023-01-05T05:30:36.844Z,97.35
2023-01-05T05:31:37.000Z,98.02
2023-01-05T05:32:42.371Z,98.39
2023-01-05T05:33:36.883Z,98.87
2023-01-05T05:34:36.874Z,99.99
2023-01-05T05:35:36.879Z,99.99
2023-01-05T05:36:36.888Z,99.99
2023-01-05T05:37:36.897Z,99.99
2023-01-05T05:38:36.900Z,99.99
2023-01-05T05:39:36.917Z,99.99
2023-01-05T05:40:36.913Z,99.99
2023-01-05T05:41:36.926Z,99.99
2023-01-05T05:42:36.929Z,99.99
2023-01-05T05:43:36.945Z,99.99
2023-01-05T05:44:36.941Z,99.99
2023-01-05T05:45:36.959Z,99.99
2023-01-05T05:46:37.069Z,99.99
2023-01-05T05:47:36.962Z,99.99
2023-01-05T05:48:36.967Z,99.99
2023-01-05T05:49:37.002Z,99.99
2023-01-05T05:50:36.979Z,99.99
2023-01-05T05:51:36.992Z,99.99
2023-01-05T05:52:36.989Z,99.99
2023-01-05T05:53:37.005Z,99.99
2023-01-05T05:54:37.005Z,99.99
2023-01-05T05:55:37.023Z,99.99
2023-01-05T05:56:37.129Z,99.99
2023-01-05T05:57:37.033Z,99.99
2023-01-05T05:58:37.033Z,99.99
2023-01-05T05:59:37.044Z,99.99
2023-01-05T06:00:37.060Z,99.99
2023-01-05T06:01:37.298Z,99.99
2023-01-05T06:02:37.205Z,99.99
2023-01-05T06:03:37.109Z,99.99
2023-01-05T06:04:37.116Z,99.99
2023-01-05T06:05:37.112Z,99.99
2023-01-05T06:06:37.082Z,99.99
2023-01-05T06:07:37.126Z,99.99
2023-01-05T06:08:37.098Z,99.99
2023-01-05T06:09:37.113Z,99.99
2023-01-05T06:10:37.114Z,99.99
2023-01-05T06:11:37.129Z,99.99
2023-01-05T06:12:37.137Z,99.99
2023-01-05T06:13:37.138Z,99.99
2023-01-05T06:14:37.143Z,99.99
2023-01-05T06:15:37.156Z,99.99
2023-01-05T06:16:37.227Z,99.99
2023-01-05T06:17:37.171Z,99.99
2023-01-05T06:18:37.167Z,99.99
2023-01-05T06:19:37.179Z,99.99
2023-01-05T06:20:37.188Z,99.99
2023-01-05T06:21:37.210Z,99.99
2023-01-05T06:22:37.196Z,99.99
2023-01-05T06:23:37.215Z,99.99
2023-01-05T06:24:37.210Z,99.99
2023-01-05T06:25:37.222Z,99.99
2023-01-05T06:26:37.223Z,99.99
2023-01-05T06:27:37.233Z,99.99
2023-01-05T06:28:37.247Z,99.99
2023-01-05T06:29:37.255Z,99.99
2023-01-05T06:30:37.265Z,99.99
2023-01-05T06:31:37.308Z,99.99
2023-01-05T06:32:37.266Z,99.99
2023-01-05T06:33:37.278Z,99.99
2023-01-05T06:34:37.279Z,99.99
2023-01-05T06:35:37.289Z,99.99
2023-01-05T06:36:37.321Z,99.99
2023-01-05T06:37:37.341Z,99.99
2023-01-05T06:38:37.321Z,99.99
2023-01-05T06:39:37.317Z,99.99
2023-01-05T06:40:37.331Z,99.99
2023-01-05T06:41:37.333Z,99.99
2023-01-05T06:42:37.332Z,99.99
2023-01-05T06:43:37.344Z,99.99
2023-01-05T06:44:37.361Z,99.99
2023-01-05T06:45:37.426Z,99.99
2023-01-05T06:46:37.365Z,99.99
2023-01-05T06:47:37.375Z,99.99
2023-01-05T06:48:37.375Z,99.99
2023-01-05T06:49:37.400Z,99.99
2023-01-05T06:50:37.394Z,99.99
2023-01-05T06:51:37.402Z,99.99
2023-01-05T06:52:37.409Z,99.99
2023-01-05T06:53:37.430Z,99.99
2023-01-05T06:54:37.419Z,99.99
2023-01-05T06:55:37.424Z,99.99
2023-01-05T06:56:37.429Z,99.99
2023-01-05T06:57:37.442Z,99.99
2023-01-05T06:58:37.438Z,99.99
2023-01-05T06:59:37.447Z,99.99
2023-01-05T07:00:37.490Z,99.99
2023-01-05T07:01:37.537Z,99.99
2023-01-05T07:02:37.466Z,99.99
2023-01-05T07:03:37.548Z,99.99
2023-01-05T07:04:37.495Z,99.99
2023-01-05T07:05:37.492Z,99.99
2023-01-05T07:06:37.492Z,99.99
2023-01-05T07:07:37.507Z,99.99
2023-01-05T07:08:37.512Z,99.99
2023-01-05T07:09:37.531Z,99.99
2023-01-05T07:10:37.516Z,99.99
2023-01-05T07:11:37.523Z,99.99
2023-01-05T07:12:37.540Z,99.99
2023-01-05T07:13:37.545Z,99.99
2023-01-05T07:14:37.540Z,99.99
2023-01-05T07:15:37.553Z,99.99
2023-01-05T07:16:37.632Z,99.99
2023-01-05T07:17:37.565Z,99.99
2023-01-05T07:18:37.571Z,99.99
2023-01-05T07:19:37.579Z,99.99
2023-01-05T07:20:37.582Z,99.99
2023-01-05T07:21:37.589Z,99.99
2023-01-05T07:22:37.596Z,99.99
2023-01-05T07:23:37.629Z,99.99
2023-01-05T07:24:37.612Z,99.99
2023-01-05T07:25:37.639Z,99.99
2023-01-05T07:26:37.632Z,99.99
2023-01-05T07:27:37.630Z,99.99
2023-01-05T07:28:37.690Z,99.99
2023-01-05T07:29:37.642Z,99.99
2023-01-05T07:30:37.657Z,99.99
2023-01-05T07:31:37.687Z,99.99
2023-01-05T07:32:37.698Z,99.99
2023-01-05T07:33:40.255Z,99.99
2023-01-05T07:34:37.674Z,99.99
2023-01-05T07:35:37.692Z,99.99
2023-01-05T07:36:37.688Z,99.99
2023-01-05T07:37:37.703Z,99.99
2023-01-05T07:38:37.705Z,99.99
2023-01-05T07:39:37.715Z,99.99
2023-01-05T07:40:37.717Z,99.99
2023-01-05T07:41:37.746Z,99.99
2023-01-05T07:42:37.730Z,99.99
2023-01-05T07:43:37.743Z,99.99
2023-01-05T07:44:37.750Z,99.99
2023-01-05T07:45:37.816Z,99.99
2023-01-05T07:46:37.766Z,99.99
2023-01-05T07:47:37.770Z,99.99
2023-01-05T07:48:37.773Z,99.99
2023-01-05T07:49:37.787Z,99.99
2023-01-05T07:50:37.789Z,99.99
2023-01-05T07:51:37.795Z,99.99
2023-01-05T07:52:37.819Z,99.99
2023-01-05T07:53:44.011Z,99.99
2023-01-05T07:54:37.848Z,99.99
2023-01-05T07:55:37.831Z,99.99
2023-01-05T07:56:37.839Z,99.99
2023-01-05T07:57:37.884Z,99.99
2023-01-05T07:58:37.847Z,99.99
2023-01-05T07:59:37.867Z,99.99
2023-01-05T08:00:37.878Z,99.99
2023-01-05T08:01:38.008Z,99.99
2023-01-05T08:02:37.916Z,99.99
2023-01-05T08:03:37.895Z,99.99
2023-01-05T08:04:37.962Z,99.99
2023-01-05T08:05:37.890Z,99.99
2023-01-05T08:06:37.926Z,99.99
2023-01-05T08:07:37.921Z,99.99
2023-01-05T08:08:37.917Z,99.99
2023-01-05T08:09:37.934Z,99.99
2023-01-05T08:10:37.930Z,99.99
2023-01-05T08:11:37.935Z,99.99
2023-01-05T08:12:37.943Z,99.99
2023-01-05T08:13:37.976Z,99.99
2023-01-05T08:14:37.971Z,99.99
2023-01-05T08:15:37.971Z,99.99
2023-01-05T08:16:37.992Z,99.99
2023-01-05T08:17:37.975Z,99.99
2023-01-05T08:18:37.987Z,99.99
2023-01-05T08:19:37.998Z,99.99
2023-01-05T08:20:38.020Z,99.99
2023-01-05T08:21:38.003Z,99.99
2023-01-05T08:22:38.033Z,99.99
2023-01-05T08:23:38.017Z,99.99
2023-01-05T08:24:38.029Z,99.99
2023-01-05T08:25:38.041Z,99.99
2023-01-05T08:26:38.085Z,99.99
2023-01-05T08:27:38.045Z,99.99
2023-01-05T08:28:38.058Z,99.99
2023-01-05T08:29:38.080Z,99.99
2023-01-05T08:30:38.072Z,99.99
2023-01-05T08:31:38.103Z,99.99
2023-01-05T08:32:38.089Z,99.99
2023-01-05T08:33:38.086Z,99.99
2023-01-05T08:34:38.119Z,99.99
2023-01-05T08:35:38.105Z,99.99
2023-01-05T08:36:38.117Z,99.99
2023-01-05T08:37:38.115Z,99.99
2023-01-05T08:38:38.128Z,99.99
2023-01-05T08:39:38.129Z,99.99
2023-01-05T08:40:38.147Z,99.99
2023-01-05T08:41:38.143Z,99.99
2023-01-05T08:42:38.158Z,99.99
2023-01-05T08:43:38.161Z,99.99
2023-01-05T08:44:38.175Z,99.99
2023-01-05T08:45:38.236Z,99.99
2023-01-05T08:46:38.196Z,99.99
2023-01-05T08:47:38.204Z,99.99
2023-01-05T08:48:38.195Z,99.99
2023-01-05T08:49:38.201Z,99.99
2023-01-05T08:50:38.209Z,99.99
2023-01-05T08:51:38.248Z,99.99
2023-01-05T08:52:38.226Z,99.99
2023-01-05T08:53:38.251Z,99.99
2023-01-05T08:54:38.237Z,99.99
2023-01-05T08:55:38.251Z,99.99
2023-01-05T08:56:39.430Z,99.99
2023-01-05T08:57:38.272Z,99.99
2023-01-05T08:58:38.265Z,99.99
2023-01-05T08:59:38.269Z,99.99
2023-01-05T09:00:38.280Z,99.99
2023-01-05T09:01:38.410Z,99.99
2023-01-05T09:02:38.572Z,99.99
2023-01-05T09:03:38.341Z,99.99
2023-01-05T09:04:38.320Z,99.99
2023-01-05T09:05:38.324Z,99.99
2023-01-05T09:06:38.324Z,99.99
2023-01-05T09:07:38.332Z,99.99
2023-01-05T09:08:38.334Z,99.99
2023-01-05T09:09:38.376Z,99.99
2023-01-05T09:10:38.358Z,99.99
2023-01-05T09:11:38.353Z,99.99
2023-01-05T09:12:38.370Z,99.99
2023-01-05T09:13:38.366Z,99.99
2023-01-05T09:14:38.477Z,99.99
2023-01-05T09:15:38.385Z,99.99
2023-01-05T09:17:38.529Z,99.99
2023-01-05T09:18:38.411Z,99.99
2023-01-05T09:19:38.453Z,99.99
2023-01-05T09:20:40.166Z,99.99
2023-01-05T09:21:38.434Z,99.99
2023-01-05T09:22:38.441Z,99.99
2023-01-05T09:23:38.437Z,99.99
2023-01-05T09:24:38.447Z,99.99
2023-01-05T09:25:38.450Z,99.99
2023-01-05T09:26:38.570Z,99.99
2023-01-05T09:27:38.495Z,99.99
2023-01-05T09:28:38.476Z,99.99
2023-01-05T09:29:38.486Z,99.99
2023-01-05T09:30:44.443Z,99.99
2023-01-05T09:31:38.535Z,99.99
2023-01-05T09:32:38.507Z,99.99
2023-01-05T09:33:38.620Z,99.99
2023-01-05T09:34:38.516Z,99.99
2023-01-05T09:35:38.533Z,99.99
2023-01-05T09:36:38.529Z,99.99
2023-01-05T09:37:38.646Z,99.99
2023-01-05T09:38:43.431Z,99.99
2023-01-05T09:39:38.546Z,99.99
2023-01-05T09:40:38.582Z,99.99
2023-01-05T09:41:38.568Z,99.99
2023-01-05T09:42:38.575Z,99.99
2023-01-05T09:43:38.576Z,99.99
2023-01-05T09:44:38.587Z,99.99
2023-01-05T09:45:38.646Z,99.99
2023-01-05T09:46:38.636Z,99.99
2023-01-05T09:47:38.602Z,99.99
2023-01-05T09:48:38.653Z,99.99
2023-01-05T09:49:38.737Z,99.99
2023-01-05T09:50:38.641Z,99.99
2023-01-05T09:51:38.637Z,99.99
2023-01-05T09:52:38.895Z,99.99
2023-01-05T09:53:38.655Z,99.99
2023-01-05T09:54:38.659Z,99.99
2023-01-05T09:55:38.683Z,99.99
2023-01-05T09:57:09.525Z,99.99
2023-01-05T09:57:38.675Z,99.99
2023-01-05T09:58:38.683Z,99.99
2023-01-05T09:59:38.693Z,99.99
2023-01-05T10:00:38.699Z,99.99
2023-01-05T10:01:38.801Z,99.99
2023-01-05T10:02:38.716Z,99.99
2023-01-05T10:04:02.917Z,99.99
2023-01-05T10:04:38.804Z,99.99
2023-01-05T10:05:38.983Z,99.99
2023-01-05T10:06:38.741Z,99.99
2023-01-05T10:07:38.750Z,99.99
2023-01-05T10:08:38.755Z,99.99
2023-01-05T10:09:38.756Z,99.99
2023-01-05T10:10:38.787Z,99.99
2023-01-05T10:11:38.772Z,99.99
2023-01-05T10:12:38.783Z,99.99
2023-01-05T10:13:38.786Z,99.99
2023-01-05T10:14:38.794Z,99.99
2023-01-05T10:15:38.893Z,99.99
2023-01-05T10:16:38.859Z,99.99
2023-01-05T10:17:42.451Z,99.99
2023-01-05T10:18:38.826Z,99.99
2023-01-05T10:19:38.831Z,99.99
2023-01-05T10:20:38.843Z,99.99
2023-01-05T10:21:38.964Z,99.99
2023-01-05T10:22:39.223Z,99.99
2023-01-05T10:23:38.855Z,99.99
2023-01-05T10:24:38.886Z,99.99
2023-01-05T10:25:38.878Z,99.99
2023-01-05T10:27:06.393Z,99.99
2023-01-05T10:27:38.885Z,99.99
2023-01-05T10:28:38.895Z,99.99
2023-01-05T10:29:38.914Z,99.99
2023-01-05T10:30:38.931Z,99.99
2023-01-05T10:31:38.913Z,99.99
2023-01-05T10:32:49.384Z,99.99
2023-01-05T10:33:41.698Z,99.99
2023-01-05T10:34:38.938Z,99.99
2023-01-05T10:36:00.260Z,99.99
2023-01-05T10:37:38.975Z,99.99
2023-01-05T10:38:38.968Z,99.99
2023-01-05T10:39:38.968Z,99.99
2023-01-05T10:40:38.981Z,99.99
2023-01-05T10:41:38.989Z,99.99
2023-01-05T10:42:39.002Z,99.99
2023-01-05T10:43:39.012Z,99.99
2023-01-05T10:44:39.073Z,99.99
2023-01-05T10:45:57.356Z,99.99
2023-01-05T10:46:42.833Z,99.99
2023-01-05T10:47:39.141Z,99.99
2023-01-05T10:48:39.040Z,99.99
2023-01-05T10:49:39.042Z,99.99
2023-01-05T10:50:39.056Z,99.99
2023-01-05T10:51:39.063Z,99.99
2023-01-05T10:52:39.076Z,99.99
2023-01-05T10:53:39.223Z,99.99
2023-01-05T10:54:39.090Z,99.99
2023-01-05T10:55:39.095Z,99.99
2023-01-05T10:56:39.110Z,99.99
2023-01-05T10:57:39.131Z,99.99
2023-01-05T10:58:39.117Z,99.99
2023-01-05T10:59:39.171Z,99.99
2023-01-05T11:00:39.135Z,99.99
2023-01-05T11:01:39.267Z,99.99
2023-01-05T11:02:39.301Z,99.99
2023-01-05T11:04:23.755Z,99.99
2023-01-05T11:04:39.238Z,99.99
2023-01-05T11:05:39.164Z,99.99
2023-01-05T11:06:39.176Z,99.99
2023-01-05T11:07:39.183Z,99.99
2023-01-05T11:08:39.194Z,99.99
2023-01-05T11:09:39.334Z,99.99
2023-01-05T11:10:39.221Z,99.99
2023-01-05T11:11:39.214Z,99.99
2023-01-05T11:12:39.228Z,99.99
2023-01-05T11:13:39.229Z,99.99
2023-01-05T11:14:39.243Z,99.99
2023-01-05T11:15:39.335Z,99.99
2023-01-05T11:16:39.265Z,99.99
2023-01-05T11:17:39.258Z,99.99
2023-01-05T11:18:39.271Z,99.99
2023-01-05T11:19:39.274Z,99.99
2023-01-05T11:20:39.285Z,99.99
2023-01-05T11:21:39.290Z,99.99
2023-01-05T11:22:39.310Z,99.99
2023-01-05T11:23:39.310Z,99.99
2023-01-05T11:24:39.320Z,99.99
2023-01-05T11:25:39.441Z,99.99
2023-01-05T11:26:39.333Z,99.99
2023-01-05T11:27:39.339Z,99.99
2023-01-05T11:28:39.354Z,99.99
2023-01-05T11:29:39.355Z,99.99
2023-01-05T11:30:39.390Z,99.99
2023-01-05T11:31:39.382Z,99.99
2023-01-05T11:32:39.388Z,99.99
2023-01-05T11:33:39.405Z,99.99
2023-01-05T11:34:39.406Z,99.99
2023-01-05T11:35:39.442Z,99.99
2023-01-05T11:36:39.414Z,99.99
2023-01-05T11:37:39.424Z,99.99
2023-01-05T11:38:39.430Z,99.99
2023-01-05T11:39:39.437Z,99.99
2023-01-05T11:40:39.450Z,99.99
2023-01-05T11:41:39.681Z,99.99
2023-01-05T11:42:39.471Z,99.99
2023-01-05T11:43:39.573Z,99.99
2023-01-05T11:44:39.490Z,99.99
2023-01-05T11:45:39.490Z,99.99
2023-01-05T11:46:39.583Z,99.99
2023-01-05T11:47:43.836Z,99.99
2023-01-05T11:48:39.524Z,99.99
2023-01-05T11:49:39.527Z,99.99
2023-01-05T11:50:39.555Z,99.99
2023-01-05T11:51:39.561Z,99.99
2023-01-05T11:52:39.574Z,98.31
2023-01-05T11:53:39.565Z,99.99
2023-01-05T11:54:39.582Z,99.02
2023-01-05T11:55:39.588Z,99.99
2023-01-05T11:56:39.644Z,99.84
2023-01-05T11:57:39.719Z,92.51
2023-01-05T11:58:39.618Z,92.94
2023-01-05T11:59:39.627Z,92.70
2023-01-05T12:00:39.671Z,89.08
2023-01-05T12:01:39.718Z,89.61
2023-01-05T12:02:39.740Z,92.27
2023-01-05T12:03:39.698Z,92.46
2023-01-05T12:04:39.681Z,93.18
2023-01-05T12:05:39.691Z,93.27
2023-01-05T12:06:39.699Z,93.99
2023-01-05T12:07:39.718Z,96.93
2023-01-05T12:08:39.727Z,96.65
2023-01-05T12:09:39.775Z,96.74
2023-01-05T12:10:39.752Z,96.36
2023-01-05T12:11:39.745Z,97.60
2023-01-05T12:12:39.910Z,99.50
2023-01-05T12:13:39.876Z,98.26
2023-01-05T12:14:39.776Z,97.31
2023-01-05T12:15:39.814Z,99.64
2023-01-05T12:16:39.813Z,98.31
2023-01-05T12:17:39.810Z,97.60
2023-01-05T12:18:39.917Z,97.50
2023-01-05T12:19:39.845Z,97.22
2023-01-05T12:20:39.839Z,98.55
2023-01-05T12:21:39.879Z,97.69
2023-01-05T12:22:39.861Z,98.07
2023-01-05T12:23:39.953Z,98.22
2023-01-05T12:24:39.889Z,99.55
2023-01-05T12:25:39.893Z,95.36
2023-01-05T12:26:39.906Z,93.84
2023-01-05T12:27:39.923Z,97.27
2023-01-05T12:28:42.151Z,95.75
2023-01-05T12:34:39.978Z,96.46
2023-01-05T12:35:40.022Z,93.23
2023-01-05T12:36:40.006Z,92.75
2023-01-05T12:37:40.066Z,92.89
2023-01-05T12:38:40.041Z,94.65
2023-01-05T12:39:40.036Z,91.84
2023-01-05T12:40:40.050Z,91.27
2023-01-05T12:41:40.104Z,90.03
2023-01-05T12:42:40.062Z,88.99
2023-01-05T12:43:40.080Z,90.70
2023-01-05T12:44:40.087Z,91.22
2023-01-05T12:45:40.215Z,90.65
2023-01-05T12:46:40.204Z,87.27
2023-01-05T12:47:40.119Z,87.60
2023-01-05T12:48:40.128Z,86.94
2023-01-05T12:49:40.149Z,88.37
2023-01-05T12:50:40.148Z,89.27
2023-01-05T12:51:40.169Z,88.70
2023-01-05T12:52:40.175Z,92.13
2023-01-05T12:53:40.193Z,91.89
2023-01-05T12:54:40.195Z,90.27
2023-01-05T12:55:40.233Z,89.22
2023-01-05T12:56:40.225Z,88.93
2023-01-05T12:57:40.243Z,87.41
2023-01-05T12:58:40.245Z,87.60
2023-01-05T12:59:40.263Z,86.79